createdAt,value
2023-02-13T00:07:24.217Z,3.70
2023-02-13T00:17:48.491Z,3.82
2023-02-13T00:28:13.295Z,3.83
2023-02-13T00:38:39.443Z,3.86
2023-02-13T00:49:03.776Z,3.93
2023-02-13T00:59:28.584Z,3.90
2023-02-13T01:09:53.423Z,3.89
2023-02-13T01:20:18.696Z,4.01
2023-02-13T01:30:42.957Z,4.13
2023-02-13T01:41:08.599Z,4.19
2023-02-13T01:51:36.433Z,4.28
2023-02-13T02:02:02.782Z,4.35
2023-02-13T02:12:36.547Z,4.55
2023-02-13T02:23:24.930Z,4.77
2023-02-13T02:33:59.860Z,4.92
2023-02-13T02:44:34.646Z,4.96
2023-02-13T02:55:08.426Z,4.82
2023-02-13T03:06:06.090Z,4.85
2023-02-13T03:16:49.313Z,5.03
2023-02-13T03:27:44.047Z,5.16
2023-02-13T03:38:15.415Z,5.19
2023-02-13T03:49:01.066Z,5.20
2023-02-13T03:59:31.301Z,5.31
2023-02-13T04:09:58.245Z,5.40
2023-02-13T04:20:26.473Z,5.34
2023-02-13T04:30:51.319Z,5.33
2023-02-13T04:41:16.184Z,5.27
2023-02-13T04:51:41.024Z,5.11
2023-02-13T05:02:05.981Z,4.74
2023-02-13T05:12:30.791Z,4.62
2023-02-13T05:23:14.119Z,4.60
2023-02-13T05:33:39.217Z,4.76
2023-02-13T05:44:04.413Z,4.96
2023-02-13T05:54:29.277Z,5.06
2023-02-13T06:04:54.120Z,4.95
2023-02-13T06:15:19.315Z,4.95
2023-02-13T06:25:44.336Z,5.16
2023-02-13T06:36:09.505Z,5.31
2023-02-13T06:46:34.438Z,5.46
2023-02-13T06:56:59.514Z,5.45
2023-02-13T07:07:24.736Z,5.11
2023-02-13T07:17:54.986Z,5.02
2023-02-13T07:28:19.298Z,5.14
2023-02-13T07:38:44.112Z,5.16
2023-02-13T07:49:09.035Z,5.07
2023-02-13T07:59:34.089Z,5.03
2023-02-13T08:10:17.253Z,5.15
2023-02-13T08:20:41.527Z,5.31
2023-02-13T08:31:11.949Z,5.28
2023-02-13T08:41:36.403Z,5.31
2023-02-13T08:52:01.947Z,5.43
2023-02-13T09:02:26.260Z,5.58
2023-02-13T09:12:53.882Z,5.61
2023-02-13T09:23:18.758Z,5.65
2023-02-13T09:33:44.166Z,5.75
2023-02-13T09:44:33.174Z,5.93
2023-02-13T09:54:58.299Z,6.10
2023-02-13T10:05:42.252Z,6.10
2023-02-13T10:16:12.431Z,6.07
2023-02-13T10:26:44.953Z,6.12
2023-02-13T10:37:15.679Z,6.06
2023-02-13T10:47:59.536Z,5.98
2023-02-13T10:58:31.927Z,5.88
2023-02-13T11:08:56.207Z,5.96
2023-02-13T11:19:29.519Z,5.89
2023-02-13T11:29:56.836Z,5.90
2023-02-13T11:40:31.765Z,5.97
2023-02-13T11:50:56.806Z,5.98
2023-02-13T12:01:28.690Z,6.12
2023-02-13T12:11:55.195Z,6.31
2023-02-13T12:22:29.775Z,6.41
2023-02-13T12:33:08.501Z,6.44
2023-02-13T12:44:07.846Z,6.60
2023-02-13T12:54:44.435Z,6.71
2023-02-13T13:05:19.495Z,6.65
2023-02-13T13:15:52.333Z,6.52
2023-02-13T13:26:25.839Z,6.48
2023-02-13T13:36:56.554Z,6.47
2023-02-13T13:47:32.318Z,6.50
2023-02-13T13:58:00.717Z,6.60
2023-02-13T14:08:43.972Z,6.75
2023-02-13T14:19:27.044Z,6.68
2023-02-13T14:29:51.972Z,6.49
2023-02-13T14:40:53.823Z,6.49
2023-02-13T14:51:28.196Z,6.53
2023-02-13T15:01:58.948Z,6.42
2023-02-13T15:12:29.564Z,6.11
2023-02-13T15:22:54.610Z,5.94
2023-02-13T15:33:21.304Z,5.91
2023-02-13T15:43:48.327Z,5.87
2023-02-13T15:54:26.244Z,5.72
2023-02-13T16:04:53.171Z,5.64
2023-02-13T16:15:21.071Z,5.64
2023-02-13T16:25:48.375Z,5.64
2023-02-13T16:36:27.973Z,5.77
2023-02-13T16:46:55.564Z,5.89
2023-02-13T16:57:23.753Z,5.90
2023-02-13T17:07:50.481Z,5.89
2023-02-13T17:18:14.852Z,6.09
2023-02-13T17:28:39.437Z,6.20
2023-02-13T17:39:03.737Z,6.26
2023-02-13T17:49:28.568Z,6.09
2023-02-13T17:59:53.461Z,6.10
2023-02-13T18:10:20.479Z,6.18
2023-02-13T18:20:45.393Z,6.19
2023-02-13T18:31:11.079Z,6.21
2023-02-13T18:41:44.815Z,6.00
2023-02-13T18:52:09.265Z,5.77
2023-02-13T19:02:34.217Z,5.87
2023-02-13T19:12:59.155Z,5.98
2023-02-13T19:23:24.016Z,6.12
2023-02-13T19:33:50.312Z,6.24
2023-02-13T19:44:15.435Z,6.30
2023-02-13T19:54:40.268Z,6.39
2023-02-13T20:05:07.910Z,6.38
2023-02-13T20:15:32.528Z,6.16
2023-02-13T20:26:02.147Z,6.14
2023-02-13T20:36:28.285Z,6.04
2023-02-13T20:46:52.427Z,6.17
2023-02-13T20:57:17.242Z,6.16
2023-02-13T21:07:42.044Z,6.11
2023-02-13T21:18:06.391Z,5.89
2023-02-13T21:28:32.255Z,5.61
2023-02-13T21:38:57.928Z,5.36
2023-02-13T21:49:24.586Z,5.38
2023-02-13T21:59:49.482Z,5.30
2023-02-13T22:10:13.834Z,5.13
2023-02-13T22:20:39.389Z,5.33
2023-02-13T22:31:10.047Z,5.65
2023-02-13T22:41:34.294Z,5.98
2023-02-13T22:51:58.528Z,6.24
2023-02-13T23:02:22.742Z,6.37
2023-02-13T23:12:49.299Z,6.56
2023-02-13T23:23:13.496Z,6.63
2023-02-13T23:33:37.810Z,6.48
2023-02-13T23:44:02.146Z,6.35
2023-02-13T23:54:27.189Z,6.11
